Abbeville, Georgia
Current Conditions -  °F | °C
As of 12:55 AM on Wednesday 22 Oct 2014 (Local Time) from KEZM Reporting Station
Moderate Fog Moderate Fog  
Wind Chill: 10°   Ceiling: 500
Heat Index: 10°   Visibility: 0.5mi
Dew Point: 10°   Wind: 0mph
Humidity: 100%   Direction: NA
Pressure: 30.02"   Gusts: NA
Location:  31.99°N, 83.31°W
Report Text: KEZM 220455Z AUTO 00000KT 1/2SM FG VV005 10/10 A3002 RMK AO2 T01040104
Loading
Personal Weather Stations






























Interactive Weather Map
Tropical Storm Tracking
New forecast layout! Learn more

10-Day Weather Forecast

Advertisements
Track Severe Weather on mobile